Terminal Aerodrome Forecast
Issued by NWS

Home | Current Version | Previous Version | Text Only | Print | Product List | Glossary On
Versions: 1 2 3 4 5 6 7 8 9 10 11 12
000
FTUS42 KMHX 292320
TAFOAJ
TAF
KOAJ 292320Z 3000/3024 VRB05KT P6SM FEW050 SCT120
     FM301800 20008KT P6SM VCTS BKN040CB
      AMD LTD TO CLD VIS AND WIND=

USA.gov is the U.S. government's official web portal to all federal, state and local government web resources and services.